createdAt,value
2023-01-08T00:01:55.796Z,24.40
2023-01-08T00:05:55.904Z,22.73
2023-01-08T00:09:58.659Z,25.07
2023-01-08T00:13:58.684Z,24.73
2023-01-08T00:17:58.871Z,25.17
2023-01-08T00:21:58.955Z,26.07
2023-01-08T00:26:04.458Z,24.77
2023-01-08T00:30:04.680Z,25.67
2023-01-08T00:34:05.004Z,26.20
2023-01-08T00:38:05.073Z,23.17
2023-01-08T00:42:07.877Z,24.40
2023-01-08T00:46:09.959Z,26.50
2023-01-08T00:50:11.296Z,26.83
2023-01-08T00:54:13.378Z,26.30
2023-01-08T00:58:16.604Z,27.27
2023-01-08T01:02:16.681Z,27.30
2023-01-08T01:06:17.326Z,26.97
2023-01-08T01:10:19.395Z,26.63
2023-01-08T01:14:22.224Z,25.03
2023-01-08T01:18:22.325Z,22.70
2023-01-08T01:22:22.394Z,23.87
2023-01-08T01:26:24.923Z,23.90
2023-01-08T01:30:27.559Z,24.20
2023-01-08T01:34:27.804Z,27.40
2023-01-08T01:38:27.826Z,26.87
2023-01-08T01:42:44.149Z,27.97
2023-01-08T01:46:46.940Z,29.93
2023-01-08T01:50:54.506Z,29.60
2023-01-08T01:54:55.768Z,28.03
2023-01-08T01:58:55.865Z,26.83
2023-01-08T02:02:59.234Z,27.80
2023-01-08T02:07:10.254Z,26.10
2023-01-08T02:11:16.500Z,30.13
2023-01-08T02:15:24.703Z,29.47
2023-01-08T02:19:42.739Z,29.67
2023-01-08T02:23:52.052Z,29.07
2023-01-08T02:27:56.677Z,29.20
2023-01-08T02:31:57.346Z,27.60
2023-01-08T02:36:23.331Z,27.30
2023-01-08T02:40:33.435Z,27.40
2023-01-08T02:44:56.335Z,28.70
2023-01-08T02:49:05.573Z,28.60
2023-01-08T02:53:14.632Z,29.87
2023-01-08T02:57:19.766Z,29.50
2023-01-08T03:01:26.177Z,31.17
2023-01-08T03:05:30.680Z,28.47
2023-01-08T03:09:31.036Z,28.70
2023-01-08T03:13:41.216Z,29.13
2023-01-08T03:17:50.813Z,29.37
2023-01-08T03:21:54.135Z,30.30
2023-01-08T03:25:54.162Z,30.00
2023-01-08T03:29:58.666Z,27.17
2023-01-08T03:34:03.996Z,28.20
2023-01-08T03:38:15.431Z,30.47
2023-01-08T03:42:20.699Z,28.17
2023-01-08T03:46:25.578Z,29.87
2023-01-08T03:50:32.930Z,28.90
2023-01-08T03:54:36.076Z,28.83
2023-01-08T03:58:36.247Z,27.50
2023-01-08T04:02:36.514Z,27.80
2023-01-08T04:06:39.239Z,27.40
2023-01-08T04:10:39.248Z,26.13
2023-01-08T04:14:39.266Z,26.73
2023-01-08T04:18:39.261Z,26.13
2023-01-08T04:22:41.945Z,26.03
2023-01-08T04:26:41.945Z,26.23
2023-01-08T04:30:41.984Z,26.07
2023-01-08T04:34:41.990Z,27.23
2023-01-08T04:38:44.973Z,26.17
2023-01-08T04:42:44.946Z,26.63
2023-01-08T04:46:44.998Z,25.50
2023-01-08T04:50:44.998Z,26.53
2023-01-08T04:54:47.580Z,27.20
2023-01-08T04:58:47.727Z,26.50
2023-01-08T05:02:47.855Z,26.87
2023-01-08T05:06:47.937Z,26.93
2023-01-08T05:10:50.456Z,25.63
2023-01-08T05:14:50.454Z,25.73
2023-01-08T05:18:50.586Z,26.40
2023-01-08T05:22:51.525Z,26.50
2023-01-08T05:26:54.186Z,27.47
2023-01-08T05:30:54.321Z,24.77
2023-01-08T05:34:54.302Z,25.67
2023-01-08T05:38:54.270Z,26.53
2023-01-08T05:42:56.847Z,25.30
2023-01-08T05:46:57.089Z,25.13
2023-01-08T05:50:57.092Z,25.03
2023-01-08T05:54:57.028Z,25.10
2023-01-08T05:58:59.939Z,24.90
2023-01-08T06:03:00.101Z,24.97
2023-01-08T06:07:00.118Z,25.07
2023-01-08T06:11:03.222Z,25.53
2023-01-08T06:15:06.036Z,24.10
2023-01-08T06:19:06.028Z,24.70
2023-01-08T06:23:06.016Z,25.13
2023-01-08T06:27:06.220Z,26.20
2023-01-08T06:31:08.836Z,24.80
2023-01-08T06:35:09.991Z,24.97
2023-01-08T06:39:10.475Z,24.87
2023-01-08T06:43:10.485Z,24.73
2023-01-08T06:47:13.050Z,25.57
2023-01-08T06:51:13.091Z,26.90
2023-01-08T06:55:13.482Z,27.83
2023-01-08T06:59:13.563Z,27.40
2023-01-08T07:03:16.234Z,26.90
2023-01-08T07:07:17.860Z,27.13
2023-01-08T07:11:18.705Z,26.93
2023-01-08T07:15:19.321Z,27.20
2023-01-08T07:19:21.832Z,25.93
2023-01-08T07:23:21.784Z,24.50
2023-01-08T07:27:21.868Z,24.83
2023-01-08T07:31:21.933Z,24.03
2023-01-08T07:35:24.521Z,24.30
2023-01-08T07:39:24.551Z,22.43
2023-01-08T07:43:25.295Z,22.43
2023-01-08T07:47:25.217Z,22.23
2023-01-08T07:51:27.952Z,22.63
2023-01-08T07:55:28.491Z,22.83
2023-01-08T07:59:28.515Z,22.87
2023-01-08T08:03:28.595Z,20.77
2023-01-08T08:07:34.729Z,20.67
2023-01-08T08:11:34.730Z,20.77
2023-01-08T08:15:35.653Z,20.07
2023-01-08T08:19:35.649Z,20.33
2023-01-08T08:23:38.244Z,20.00
2023-01-08T08:27:38.273Z,19.73
2023-01-08T08:31:38.363Z,18.57
2023-01-08T08:35:38.955Z,18.10
2023-01-08T08:39:41.610Z,17.33
2023-01-08T08:43:41.682Z,17.37
2023-01-08T08:47:41.903Z,17.77
2023-01-08T08:51:41.918Z,17.70
2023-01-08T08:55:44.558Z,16.57
2023-01-08T08:59:44.659Z,18.07
2023-01-08T09:03:44.672Z,17.47
2023-01-08T09:07:44.667Z,17.27
2023-01-08T09:11:47.336Z,16.57
2023-01-08T09:15:50.321Z,15.27
2023-01-08T09:19:50.600Z,14.77
2023-01-08T09:23:51.744Z,14.97
2023-01-08T09:28:02.400Z,14.03
2023-01-08T09:32:02.566Z,14.20
2023-01-08T09:36:02.616Z,13.90
2023-01-08T09:40:03.405Z,13.67
2023-01-08T09:44:09.289Z,13.43
2023-01-08T09:48:16.675Z,14.20
2023-01-08T09:52:18.663Z,13.00
2023-01-08T09:56:21.693Z,13.00
2023-01-08T10:00:31.336Z,13.20
2023-01-08T10:04:34.471Z,12.23
2023-01-08T10:08:34.520Z,12.53
2023-01-08T10:12:36.983Z,12.87
2023-01-08T10:16:41.437Z,12.77
2023-01-08T10:20:42.023Z,11.90
2023-01-08T10:24:43.354Z,10.97
2023-01-08T10:28:43.395Z,14.67
2023-01-08T10:32:54.278Z,13.73
2023-01-08T10:36:56.359Z,13.17
2023-01-08T10:40:57.020Z,10.13
2023-01-08T10:45:03.408Z,10.70
2023-01-08T10:49:09.437Z,10.93
2023-01-08T10:53:27.480Z,10.67
2023-01-08T10:57:32.832Z,10.20
2023-01-08T11:01:35.600Z,10.97
2023-01-08T11:05:43.087Z,10.40
2023-01-08T11:09:51.673Z,10.10
2023-01-08T11:14:00.683Z,10.53
2023-01-08T11:18:10.821Z,10.77
2023-01-08T11:22:25.536Z,12.00
2023-01-08T11:26:26.237Z,13.03
2023-01-08T11:30:32.402Z,11.53
2023-01-08T11:34:41.882Z,12.37
2023-01-08T11:38:44.711Z,12.43
2023-01-08T11:43:10.681Z,12.27
2023-01-08T11:47:23.094Z,14.30
2023-01-08T11:51:52.625Z,15.30
2023-01-08T11:56:19.990Z,13.80
2023-01-08T12:00:40.936Z,14.23
2023-01-08T12:05:24.768Z,13.10
2023-01-08T12:09:41.492Z,12.73
2023-01-08T12:14:07.599Z,13.53
2023-01-08T12:18:38.771Z,14.23
2023-01-08T12:22:50.189Z,14.70
2023-01-08T12:27:03.772Z,15.03
2023-01-08T12:31:31.741Z,12.70
2023-01-08T12:35:39.709Z,16.50
2023-01-08T12:39:53.237Z,14.07
2023-01-08T12:44:00.635Z,13.27
2023-01-08T12:48:11.233Z,12.90
2023-01-08T12:52:20.860Z,11.70
2023-01-08T12:56:31.937Z,12.23
2023-01-08T13:00:43.004Z,12.20
2023-01-08T13:04:49.662Z,10.87
2023-01-08T13:08:53.993Z,11.00
2023-01-08T13:12:57.613Z,11.10
2023-01-08T13:17:07.880Z,17.77
2023-01-08T13:21:15.529Z,9.47
2023-01-08T13:25:37.848Z,10.40
2023-01-08T13:29:45.541Z,11.57
2023-01-08T13:33:47.935Z,10.10
2023-01-08T13:37:53.319Z,9.90
2023-01-08T13:42:28.606Z,11.77
2023-01-08T13:46:30.632Z,12.07
2023-01-08T13:50:32.747Z,11.53
2023-01-08T13:54:42.854Z,17.17
2023-01-08T13:58:54.320Z,13.20
2023-01-08T14:02:55.477Z,14.53
2023-01-08T14:06:56.529Z,11.33
2023-01-08T14:10:59.730Z,10.93
2023-01-08T14:15:04.352Z,11.00
2023-01-08T14:19:07.911Z,12.00
2023-01-08T14:23:16.042Z,13.77
2023-01-08T14:27:28.744Z,14.67
2023-01-08T14:31:31.076Z,14.53
2023-01-08T14:35:36.317Z,11.63
2023-01-08T14:39:39.141Z,12.20
2023-01-08T14:43:46.218Z,17.87
2023-01-08T14:47:49.571Z,17.53
2023-01-08T14:51:51.323Z,16.37
2023-01-08T14:55:57.893Z,16.60
2023-01-08T15:00:04.385Z,16.40
2023-01-08T15:04:17.316Z,20.07
2023-01-08T15:08:29.965Z,21.40
2023-01-08T15:12:33.238Z,18.10
2023-01-08T15:16:42.640Z,18.30
2023-01-08T15:20:42.917Z,17.57
2023-01-08T15:24:44.512Z,17.13
2023-01-08T15:28:52.743Z,17.60
2023-01-08T15:32:55.471Z,18.60
2023-01-08T15:36:55.585Z,19.37
2023-01-08T15:40:57.359Z,19.00
2023-01-08T15:44:57.443Z,18.63
2023-01-08T15:49:00.133Z,19.57
2023-01-08T15:53:01.190Z,23.00
2023-01-08T15:57:01.280Z,21.73
2023-01-08T16:01:01.386Z,21.77
2023-01-08T16:05:04.499Z,20.90
2023-01-08T16:09:05.659Z,21.17
2023-01-08T16:13:05.899Z,19.93
2023-01-08T16:17:07.263Z,20.33
2023-01-08T16:21:12.584Z,20.33
2023-01-08T16:25:15.132Z,19.30
2023-01-08T16:29:15.110Z,18.93
2023-01-08T16:33:15.153Z,20.10
2023-01-08T16:37:18.198Z,20.07
2023-01-08T16:41:18.315Z,18.13
2023-01-08T16:45:18.482Z,19.13
2023-01-08T16:49:18.925Z,19.40
2023-01-08T16:53:22.039Z,19.53
2023-01-08T16:57:22.029Z,19.60
2023-01-08T17:01:22.204Z,20.77
2023-01-08T17:05:22.482Z,21.93
2023-01-08T17:09:25.176Z,23.80
2023-01-08T17:13:25.265Z,22.57
2023-01-08T17:17:25.628Z,24.70
2023-01-08T17:21:25.726Z,23.83
2023-01-08T17:25:28.493Z,21.83
2023-01-08T17:29:28.695Z,23.27
2023-01-08T17:33:28.682Z,22.50
2023-01-08T17:37:31.760Z,22.03
2023-01-08T17:41:46.973Z,21.30
2023-01-08T17:45:47.174Z,22.87
2023-01-08T17:49:47.225Z,22.67
2023-01-08T17:53:47.249Z,22.53
2023-01-08T17:57:49.911Z,24.33
2023-01-08T18:01:51.099Z,26.43
2023-01-08T18:05:53.925Z,25.57
2023-01-08T18:09:56.985Z,22.50
2023-01-08T18:14:05.353Z,24.50
2023-01-08T18:18:08.676Z,22.83
2023-01-08T18:22:09.070Z,22.47
2023-01-08T18:26:12.614Z,23.37
2023-01-08T18:30:16.565Z,23.60
2023-01-08T18:34:17.255Z,23.07
2023-01-08T18:38:17.545Z,21.13
2023-01-08T18:42:32.855Z,20.90
2023-01-08T18:46:35.779Z,23.60
2023-01-08T18:50:35.914Z,21.90
2023-01-08T18:54:36.334Z,21.60
2023-01-08T18:58:36.568Z,22.60
2023-01-08T19:02:39.918Z,21.90
2023-01-08T19:06:40.003Z,24.20
2023-01-08T19:10:41.256Z,22.70
2023-01-08T19:14:41.484Z,23.27
2023-01-08T19:18:45.124Z,23.57
2023-01-08T19:22:45.160Z,24.23
2023-01-08T19:26:45.360Z,24.73
2023-01-08T19:30:45.561Z,23.00
2023-01-08T19:34:48.241Z,24.03
2023-01-08T19:38:48.732Z,23.80
2023-01-08T19:43:01.824Z,23.60
2023-01-08T19:47:02.120Z,23.87
2023-01-08T19:51:10.076Z,22.83
2023-01-08T19:55:11.393Z,22.93
2023-01-08T19:59:13.888Z,24.07
2023-01-08T20:03:17.210Z,23.87
2023-01-08T20:07:20.021Z,23.23
2023-01-08T20:11:21.734Z,23.67
2023-01-08T20:15:21.988Z,24.43
2023-01-08T20:19:22.067Z,25.07
2023-01-08T20:23:25.753Z,23.53
2023-01-08T20:27:26.519Z,23.10
2023-01-08T20:31:31.367Z,25.03
2023-01-08T20:35:31.481Z,25.30
2023-01-08T20:39:34.343Z,23.03
2023-01-08T20:43:34.400Z,23.73
2023-01-08T20:47:37.765Z,23.97
2023-01-08T20:51:44.086Z,24.17
2023-01-08T20:55:46.895Z,24.57
2023-01-08T20:59:46.972Z,24.63
2023-01-08T21:03:47.935Z,22.73
2023-01-08T21:07:48.174Z,23.73
2023-01-08T21:11:50.903Z,22.60
2023-01-08T21:15:50.921Z,25.17
2023-01-08T21:19:50.998Z,23.87
2023-01-08T21:23:52.047Z,24.30
2023-01-08T21:27:54.666Z,23.27
2023-01-08T21:31:55.238Z,24.93
2023-01-08T21:35:55.437Z,24.63
2023-01-08T21:39:55.567Z,23.33
2023-01-08T21:44:10.735Z,24.77
2023-01-08T21:48:12.806Z,24.33
2023-01-08T21:52:25.781Z,25.20
2023-01-08T21:56:25.836Z,25.17
2023-01-08T22:00:28.764Z,25.90
2023-01-08T22:04:28.852Z,24.90
2023-01-08T22:08:30.672Z,26.50
2023-01-08T22:12:30.942Z,24.70
2023-01-08T22:16:33.844Z,25.10
2023-01-08T22:20:33.855Z,24.33
2023-01-08T22:24:34.217Z,24.40
2023-01-08T22:28:34.540Z,27.53
2023-01-08T22:32:37.148Z,25.23
2023-01-08T22:36:37.450Z,24.33
2023-01-08T22:40:37.575Z,23.97
2023-01-08T22:44:38.113Z,24.67
2023-01-08T22:48:40.705Z,25.37
2023-01-08T22:52:40.774Z,24.23
2023-01-08T22:56:40.919Z,24.53
2023-01-08T23:00:41.541Z,24.07
2023-01-08T23:04:44.379Z,23.73
2023-01-08T23:08:46.386Z,23.90
2023-01-08T23:12:46.702Z,23.43
2023-01-08T23:16:47.165Z,22.17
2023-01-08T23:20:49.963Z,22.93
2023-01-08T23:24:49.965Z,21.93
2023-01-08T23:28:52.053Z,21.97
2023-01-08T23:32:52.097Z,22.80
2023-01-08T23:36:55.289Z,23.07
2023-01-08T23:40:55.269Z,22.57
2023-01-08T23:44:55.668Z,22.77
2023-01-08T23:48:55.847Z,22.07
2023-01-08T23:52:58.630Z,23.07
2023-01-08T23:56:58.643Z,21.93
